Annapolis, Indiana
Current Conditions -  °F | °C
As of 4:35 PM on Friday 28 Nov 2014 (Local Time) from KPRG Reporting Station
Clear Clear  
Wind Chill: 28°   Ceiling: Unl
Heat Index: 38°   Visibility: 7mi
Dew Point: 31°   Wind: 17mph
Humidity: 77%   Direction: 170°S
Pressure: 30.06"   Gusts: 23mph
Location:  39.8468°N, 87.2662°W
Report Text: KPRG 282135Z AUTO 17015G20KT 7SM CLR 03/00 A3006 RMK AO2 T00311005
Loading
Personal Weather Stations






























Interactive Weather Map New forecast layout! Learn more

10-Day Weather Forecast

Advertisements
Track Severe Weather on mobile